Towner, Colorado
Current Conditions -  °F | °C
As of 5:53 AM on Wednesday 22 Oct 2014 (Local Time) from KLAA Reporting Station
Clear Clear  
Wind Chill: 54°   Ceiling: Unl
Heat Index: 54°   Visibility: 10mi
Dew Point: 48°   Wind: 7mph
Humidity: 80%   Direction: 260°W
Pressure: 29.95"   Gusts: NA
Location:  38.4443°N, 102.221°W
Report Text: KLAA 221153Z AUTO 26006KT 10SM CLR 12/09 A2995 RMK AO2 SLP106 T01220089 10161 20122 53013
Loading
Personal Weather Stations






























Interactive Weather Map
Tropical Storm Tracking
New forecast layout! Learn more

10-Day Weather Forecast

Advertisements
Track Severe Weather on mobile